KCFD/CFD METAR and TAF weather

Enter ICAO airport designator
Station Type Date Time Source
KCFD METAR 2018/12/12 05:35 UTC NOAA

KCFD 120535Z AUTO 14005KT 10SM CLR 10/08 A3018 RMK AO2 T00970080


Station Type Date Time Source
KCFD Decoded METAR 2018/12/12 05:35 UTC NOAA

Station name not available
Dec 12, 2018 - 12:35 AM EST / 2018.12.12 0535 UTC
Wind: from the SE (140 degrees) at 6 MPH (5 KT):0
Visibility: 10 mile(s):0
Sky conditions: clear
Temperature: 49.5 F (9.7 C)
Dew Point: 46.4 F (8.0 C)
Relative Humidity: 89%
Pressure (altimeter): 30.18 in. Hg (1022 hPa)
ob: KCFD 120535Z AUTO 14005KT 10SM CLR 10/08 A3018 RMK AO2 T00970080
cycle: 5

Station Type Date Time Source
KCFD TAF UTC NOAA

Error!


Example: see airport list